createdAt,value
2019-05-30T00:02:10.275Z,7.2
2019-05-30T00:07:12.685Z,7.2
2019-05-30T00:12:15.131Z,7.1
2019-05-30T00:17:17.561Z,7
2019-05-30T00:22:20.027Z,7
2019-05-30T00:27:22.435Z,6.9
2019-05-30T00:32:24.978Z,6.9
2019-05-30T00:37:27.356Z,6.9
2019-05-30T00:42:29.756Z,6.8
2019-05-30T00:47:32.215Z,6.7
2019-05-30T00:52:34.631Z,6.7
2019-05-30T00:57:37.152Z,6.5
2019-05-30T01:02:39.620Z,6.5
2019-05-30T01:07:41.968Z,6.4
2019-05-30T01:12:44.412Z,6.4
2019-05-30T01:17:46.928Z,6.3
2019-05-30T01:22:49.297Z,6.3
2019-05-30T01:27:51.713Z,6.3
2019-05-30T01:32:54.157Z,6.2
2019-05-30T01:37:57.552Z,6.2
2019-05-30T01:42:59.904Z,6.2
2019-05-30T01:48:02.873Z,6.1
2019-05-30T01:53:04.612Z,6
2019-05-30T01:58:07.209Z,6
2019-05-30T02:08:11.284Z,5.8
2019-05-30T02:13:13.739Z,5.7
2019-05-30T02:18:16.195Z,5.7
2019-05-30T02:23:18.614Z,5.6
2019-05-30T02:28:21.049Z,5.6
2019-05-30T02:33:23.471Z,5.5
2019-05-30T02:38:25.899Z,5.4
2019-05-30T02:43:28.350Z,5.4
2019-05-30T02:48:30.760Z,5.4
2019-05-30T02:53:33.210Z,5.3
2019-05-30T02:58:35.666Z,5.3
2019-05-30T03:03:38.077Z,5.2
2019-05-30T03:08:40.558Z,5.2
2019-05-30T03:13:42.960Z,5.1
2019-05-30T03:18:45.465Z,5.1
2019-05-30T03:23:47.826Z,5.1
2019-05-30T03:28:53.316Z,5
2019-05-30T03:33:52.748Z,5
2019-05-30T03:38:55.173Z,5.1
2019-05-30T03:43:57.610Z,5.2
2019-05-30T03:49:00.078Z,5.2
2019-05-30T03:54:04.770Z,5.3
2019-05-30T03:59:05.752Z,5.4
2019-05-30T04:04:09.125Z,5.5
2019-05-30T04:09:11.801Z,5.6
2019-05-30T04:19:15.591Z,5.8
2019-05-30T04:24:17.214Z,5.9
2019-05-30T04:29:19.558Z,6
2019-05-30T04:34:22.034Z,6.1
2019-05-30T04:39:24.465Z,6.2
2019-05-30T04:44:26.987Z,6.3
2019-05-30T04:49:29.385Z,6.4
2019-05-30T04:54:31.771Z,6.6
2019-05-30T04:59:34.197Z,6.7
2019-05-30T05:04:36.631Z,6.8
2019-05-30T05:09:39.074Z,6.9
2019-05-30T05:14:41.528Z,7
2019-05-30T05:19:44.415Z,7.1
2019-05-30T05:24:46.397Z,7.2
2019-05-30T05:29:48.831Z,7.3
2019-05-30T05:34:52.185Z,7.5
2019-05-30T05:39:53.764Z,7.6
2019-05-30T05:44:56.175Z,7.7
2019-05-30T05:49:58.594Z,7.8
2019-05-30T05:55:01.201Z,8
2019-05-30T06:00:03.532Z,8.1
2019-05-30T06:05:05.983Z,8.2
2019-05-30T06:10:08.373Z,8.4
2019-05-30T06:15:10.935Z,8.5
2019-05-30T06:25:15.699Z,8.8
2019-05-30T06:30:18.278Z,8.9
2019-05-30T06:35:21.366Z,9
2019-05-30T06:40:23.701Z,9.1
2019-05-30T06:45:26.689Z,9.3
2019-05-30T06:50:29.029Z,9.4
2019-05-30T06:55:31.396Z,9.5
2019-05-30T07:00:32.975Z,9.6
2019-05-30T07:05:35.881Z,9.7
2019-05-30T07:10:37.640Z,9.8
2019-05-30T07:15:40.086Z,9.9
2019-05-30T07:20:42.566Z,9.9
2019-05-30T07:25:44.985Z,10
2019-05-30T07:30:47.412Z,10.1
2019-05-30T07:35:49.862Z,10.1
2019-05-30T07:40:52.364Z,10.2
2019-05-30T07:45:58.102Z,10.2
2019-05-30T07:50:57.529Z,10.3
2019-05-30T07:55:59.660Z,10.3
2019-05-30T08:01:02.088Z,10.4
2019-05-30T08:06:04.548Z,10.6
2019-05-30T08:11:09.718Z,10.7
2019-05-30T08:16:09.372Z,10.9
2019-05-30T08:21:11.834Z,10.9
2019-05-30T08:26:14.471Z,11
2019-05-30T08:31:16.672Z,11.1
2019-05-30T08:36:19.129Z,11.2
2019-05-30T08:41:21.589Z,11.3
2019-05-30T08:46:23.994Z,11.4
2019-05-30T08:51:26.503Z,11.5
2019-05-30T08:56:30.184Z,11.7
2019-05-30T09:01:31.449Z,11.8
2019-05-30T09:06:33.759Z,11.9
2019-05-30T09:11:37.607Z,12
2019-05-30T09:16:38.649Z,12.1
2019-05-30T09:21:41.401Z,12.3
2019-05-30T09:26:46.738Z,12.4
2019-05-30T09:31:46.660Z,12.5
2019-05-30T09:36:49.086Z,12.6
2019-05-30T09:41:50.981Z,12.7
2019-05-30T09:46:53.324Z,12.9
2019-05-30T09:51:55.752Z,13
2019-05-30T09:56:58.168Z,13.1
2019-05-30T10:02:00.795Z,13.3
2019-05-30T10:07:03.098Z,13.4
2019-05-30T10:12:05.555Z,13.7
2019-05-30T10:17:07.978Z,13.9
2019-05-30T10:22:10.393Z,14
2019-05-30T10:27:12.907Z,14.2
2019-05-30T10:32:15.431Z,14.6
2019-05-30T10:37:17.702Z,15
2019-05-30T10:42:20.125Z,15.4
2019-05-30T10:47:22.677Z,15.8
2019-05-30T10:52:25.033Z,16.2
2019-05-30T10:57:27.538Z,16.5
2019-05-30T11:02:29.903Z,16.8
2019-05-30T11:07:32.346Z,16.9
2019-05-30T11:12:34.823Z,17.1
2019-05-30T11:17:37.289Z,17.2
2019-05-30T11:22:39.680Z,17.7
2019-05-30T11:27:42.113Z,18.1
2019-05-30T11:32:44.540Z,18.6
2019-05-30T11:37:47.021Z,18.9
2019-05-30T11:42:49.606Z,19
2019-05-30T11:47:51.855Z,19
2019-05-30T11:57:56.755Z,19.3
2019-05-30T12:08:01.659Z,19.9
2019-05-30T12:13:04.105Z,20.2
2019-05-30T12:18:06.660Z,20.2
2019-05-30T12:23:08.941Z,20.3
2019-05-30T12:28:11.403Z,20.4
2019-05-30T12:33:13.853Z,20.5
2019-05-30T12:38:16.263Z,20.4
2019-05-30T12:43:18.722Z,20.6
2019-05-30T12:48:21.241Z,20.4
2019-05-30T12:53:23.604Z,20.5
2019-05-30T12:58:26.040Z,20.6
2019-05-30T13:03:28.615Z,20.8
2019-05-30T13:08:30.925Z,21.1
2019-05-30T13:13:33.402Z,21.1
2019-05-30T13:18:35.818Z,21.3
2019-05-30T13:23:38.232Z,21.3
2019-05-30T13:28:40.711Z,21.4
2019-05-30T13:33:43.129Z,21.6
2019-05-30T13:38:45.573Z,21.8
2019-05-30T13:43:48.071Z,22.1
2019-05-30T13:48:50.464Z,22.4
2019-05-30T13:53:52.898Z,22.7
2019-05-30T13:58:55.396Z,22.9
2019-05-30T14:03:57.781Z,23.3
2019-05-30T14:09:00.362Z,23.7
2019-05-30T14:14:02.803Z,24.1
2019-05-30T14:19:05.379Z,24.3
2019-05-30T14:24:07.591Z,24.8
2019-05-30T14:29:10.118Z,25.5
2019-05-30T14:34:12.469Z,26
2019-05-30T14:39:14.888Z,26.9
2019-05-30T14:44:17.324Z,27.8
2019-05-30T14:49:19.754Z,29
2019-05-30T14:54:22.238Z,29.5
2019-05-30T14:59:24.661Z,29.8
2019-05-30T15:04:27.077Z,30.5
2019-05-30T15:09:29.518Z,31.2
2019-05-30T15:14:31.988Z,31.7
2019-05-30T15:19:34.412Z,31.8
2019-05-30T15:24:36.869Z,31.8
2019-05-30T15:29:39.335Z,31.8
2019-05-30T15:34:41.726Z,31.7
2019-05-30T15:39:44.467Z,32.1
2019-05-30T15:44:46.674Z,32.2
2019-05-30T15:49:52.100Z,31.6
2019-05-30T15:54:51.553Z,30.6
2019-05-30T15:59:53.963Z,29.5
2019-05-30T16:04:56.420Z,28.5
2019-05-30T16:09:58.857Z,27.9
2019-05-30T16:15:01.299Z,26.3
2019-05-30T16:20:03.737Z,26.1
2019-05-30T16:25:06.619Z,26.6
2019-05-30T16:30:09.043Z,26.7
2019-05-30T16:35:11.049Z,25.7
2019-05-30T16:40:14.454Z,24.7
2019-05-30T16:45:19.396Z,23.9
2019-05-30T16:50:19.025Z,23.4
2019-05-30T16:55:21.357Z,22.9
2019-05-30T17:00:23.247Z,22.3
2019-05-30T17:05:25.719Z,21.7
2019-05-30T17:10:32.497Z,21.2
2019-05-30T17:15:30.566Z,20.8
2019-05-30T17:20:33.013Z,20.5
2019-05-30T17:25:35.477Z,20.3
2019-05-30T17:30:37.891Z,20.2
2019-05-30T17:35:40.327Z,20.2
2019-05-30T17:40:45.090Z,20.1
2019-05-30T17:45:45.222Z,20
2019-05-30T17:50:47.658Z,19.9
2019-05-30T17:55:50.265Z,19.7
2019-05-30T18:00:52.551Z,19.4
2019-05-30T18:05:55.060Z,19.1
2019-05-30T18:10:57.422Z,18.9
2019-05-30T18:16:00.136Z,18.6
2019-05-30T18:21:02.323Z,18.3
2019-05-30T18:26:04.746Z,18
2019-05-30T18:31:07.238Z,17.7
2019-05-30T18:36:09.657Z,17.5
2019-05-30T18:41:15.741Z,17.3
2019-05-30T18:46:14.545Z,17.1
2019-05-30T18:51:17.020Z,17.1
2019-05-30T18:56:19.373Z,16.9
2019-05-30T19:01:21.839Z,16.9
2019-05-30T19:06:25.536Z,16.8
2019-05-30T19:11:30.734Z,16.6
2019-05-30T19:16:30.705Z,16.6
2019-05-30T19:21:32.132Z,16.5
2019-05-30T19:26:34.687Z,16.4
2019-05-30T19:36:38.931Z,16.2
2019-05-30T19:41:53.980Z,16.1
2019-05-30T19:46:44.021Z,16.1
2019-05-30T19:51:46.233Z,16
2019-05-30T19:56:48.668Z,15.9
2019-05-30T20:01:51.195Z,16
2019-05-30T20:06:53.548Z,16
2019-05-30T20:12:03.017Z,16
2019-05-30T20:16:58.426Z,16
2019-05-30T20:22:00.856Z,16
2019-05-30T20:27:03.329Z,16
2019-05-30T20:32:05.889Z,16
2019-05-30T20:37:08.250Z,16
2019-05-30T20:42:19.041Z,16
2019-05-30T20:47:13.094Z,16
2019-05-30T20:52:15.533Z,16
2019-05-30T20:57:17.946Z,15.9
2019-05-30T21:02:20.426Z,15.9
2019-05-30T21:07:22.990Z,15.9
2019-05-30T21:12:36.715Z,15.9
2019-05-30T21:17:27.719Z,15.9
2019-05-30T21:22:30.165Z,15.9
2019-05-30T21:27:32.604Z,15.8
2019-05-30T21:32:35.105Z,15.8
2019-05-30T21:37:37.746Z,15.8
2019-05-30T21:42:55.268Z,15.7
2019-05-30T21:47:42.757Z,15.7
2019-05-30T21:52:46.237Z,15.6
2019-05-30T21:57:48.111Z,15.5
2019-05-30T22:02:50.750Z,15.4
2019-05-30T22:07:52.190Z,15.3
2019-05-30T22:13:07.085Z,15.3
2019-05-30T22:17:57.011Z,15.2
2019-05-30T22:22:59.448Z,15.2
2019-05-30T22:28:01.874Z,15.2
2019-05-30T22:33:04.390Z,15.2
2019-05-30T22:38:06.786Z,15.2
2019-05-30T22:43:22.566Z,15.2
2019-05-30T22:48:11.714Z,15.2
2019-05-30T22:53:14.140Z,15.2
2019-05-30T22:58:16.520Z,15.1
2019-05-30T23:03:18.975Z,15.1
2019-05-30T23:08:21.432Z,15.1
2019-05-30T23:13:23.874Z,15
2019-05-30T23:18:26.349Z,15
2019-05-30T23:23:28.735Z,14.9
2019-05-30T23:28:31.181Z,14.9
2019-05-30T23:33:33.640Z,14.9
2019-05-30T23:38:36.146Z,14.8
2019-05-30T23:43:38.538Z,14.8
2019-05-30T23:48:40.982Z,14.8
2019-05-30T23:53:43.377Z,14.8
2019-05-30T23:58:45.840Z,14.8
